Time;durP1;ratioP1;P1;durP2;ratioP2;P2;SDS_P1;SDS_P2;PMS_P1;PMS_P2;Temp;Humidity;BMP_temperature;BMP_pressure;BME280_temperature;BME280_humidity;BME280_pressure;Samples;Min_cycle;Max_cycle;Signal;HPM_P1;HPM_P2
2023/09/13 00:13:21;;;;;;;18.48;13.65;;;;;;;19.33;66.27;99720.78;30970449;28;115793;-62
2023/09/13 00:28:22;;;;;;;17.90;14.25;;;;;;;19.17;67.01;99723.19;30969379;28;97876;-64
2023/09/13 00:43:22;;;;;;;18.30;13.52;;;;;;;18.97;67.20;99717.38;30967595;28;97090;-62
2023/09/13 00:58:24;;;;;;;18.20;14.18;;;;;;;18.72;67.59;99721.94;30964236;28;114331;-67
2023/09/13 01:13:24;;;;;;;;;;;;;;;18.58;68.47;99713.25;30964667;28;97480;-65
2023/09/13 01:28:47;;;;;;;19.38;15.75;;;;;;;18.45;69.02;99705.41;30966566;28;97315;-63
2023/09/13 01:43:53;;;;;;;19.87;16.17;;;;;;;18.26;69.36;99697.44;30962851;28;97143;-63
2023/09/13 01:58:54;;;;;;;23.03;17.50;;;;;;;17.94;69.94;99694.19;30960848;28;97304;-62
2023/09/13 02:13:54;;;;;;;19.55;16.52;;;;;;;17.68;71.25;99698.91;30964065;28;105828;-67
2023/09/13 02:28:56;;;;;;;23.38;17.80;;;;;;;17.70;71.82;99699.50;30979779;28;115929;-63
2023/09/13 02:43:56;;;;;;;;;;;;;;;17.59;72.22;99697.56;30978494;28;97521;-65
2023/09/13 02:58:56;;;;;;;24.75;17.20;;;;;;;17.54;72.46;99695.56;30977579;28;97224;-62
2023/09/13 03:13:57;;;;;;;23.02;17.48;;;;;;;17.44;72.91;99681.81;30973572;28;107060;-63
2023/09/13 03:28:57;;;;;;;22.63;17.77;;;;;;;17.29;73.34;99686.78;30971291;28;97159;-65
2023/09/13 03:43:57;;;;;;;26.58;17.70;;;;;;;17.19;73.80;99677.38;30969376;28;97183;-67
2023/09/13 03:58:58;;;;;;;20.52;17.67;;;;;;;17.06;73.97;99669.50;30968899;28;97329;-64
2023/09/13 04:13:58;;;;;;;21.10;18.25;;;;;;;16.96;74.55;99671.88;30967741;28;106161;-67
2023/09/13 04:28:58;;;;;;;23.45;17.45;;;;;;;16.98;74.93;99669.81;30964479;28;96712;-63
2023/09/13 04:43:59;;;;;;;25.67;19.30;;;;;;;17.12;75.26;99670.47;30960934;28;109479;-65
2023/09/13 04:58:59;;;;;;;26.15;19.05;;;;;;;17.38;75.06;99671.97;30960184;28;97098;-65
2023/09/13 05:14:13;;;;;;;23.17;18.08;;;;;;;17.78;74.88;99687.56;30961328;28;113901;-69
2023/09/13 05:29:14;;;;;;;24.00;19.57;;;;;;;18.17;74.00;99688.03;30960784;28;96658;-64
2023/09/13 05:44:19;;;;;;;22.83;18.08;;;;;;;18.75;73.78;99699.06;30958142;28;97181;-66
2023/09/13 05:59:19;;;;;;;26.17;17.83;;;;;;;19.43;73.12;99691.31;30955586;28;96821;-66
2023/09/13 06:14:19;;;;;;;21.35;17.02;;;;;;;19.95;71.91;99685.75;30954863;28;109305;-68
2023/09/13 06:29:20;;;;;;;19.90;15.48;;;;;;;20.92;70.85;99682.09;30955344;28;99362;-69
2023/09/13 06:44:20;;;;;;;16.47;13.57;;;;;;;21.87;68.35;99699.94;30953343;28;113537;-66
2023/09/13 06:59:20;;;;;;;19.33;12.37;;;;;;;22.97;66.54;99707.53;30954744;28;116400;-66
2023/09/13 07:14:21;;;;;;;16.98;11.35;;;;;;;24.07;63.95;99714.94;30971792;28;97594;-66
2023/09/13 07:29:21;;;;;;;14.30;11.15;;;;;;;25.51;60.31;99720.06;30971744;28;96993;-63
2023/09/13 07:44:21;;;;;;;16.15;10.40;;;;;;;26.93;56.71;99740.25;30966287;28;96723;-64
2023/09/13 07:59:22;;;;;;;13.50;8.57;;;;;;;28.91;51.31;99726.06;30965141;28;107455;-68
2023/09/13 08:14:23;;;;;;;11.70;8.80;;;;;;;30.34;45.63;99715.75;30964639;28;97177;-68
2023/09/13 08:29:23;;;;;;;12.45;7.57;;;;;;;31.77;41.46;99734.84;30963788;28;115305;-66
2023/09/13 08:44:24;;;;;;;16.13;8.73;;;;;;;34.51;36.48;99733.91;30964574;28;113575;-68
2023/09/13 08:59:25;;;;;;;9.73;7.03;;;;;;;44.12;23.98;99708.78;30962802;28;97532;-66
2023/09/13 09:14:31;;;;;;;7.63;6.57;;;;;;;50.01;17.73;99700.47;31067463;28;97207;-66
2023/09/13 09:29:39;;;;;;;6.63;6.03;;;;;;;47.12;18.73;99679.59;30988011;28;97420;-64
2023/09/13 09:44:39;;;;;;;10.83;6.70;;;;;;;44.96;19.43;99680.81;30966224;28;97460;-66
2023/09/13 09:59:40;;;;;;;12.02;6.60;;;;;;;47.02;18.32;99694.72;31105889;28;97142;-68
2023/09/13 10:14:42;;;;;;;11.65;5.68;;;;;;;51.20;15.21;99702.84;30958903;28;97069;-65
2023/09/13 10:29:51;;;;;;;9.00;6.63;;;;;;;53.26;13.35;99691.47;30954284;28;97039;-65
2023/09/13 10:44:53;;;;;;;10.83;4.87;;;;;;;56.15;11.82;99677.19;30971155;28;97071;-70
2023/09/13 10:59:54;;;;;;;11.97;4.83;;;;;;;58.52;10.01;99660.34;30974514;28;97410;-68
2023/09/13 11:14:55;;;;;;;9.67;4.10;;;;;;;60.20;8.40;99671.41;30970784;28;97473;-66
2023/09/13 11:29:58;;;;;;;8.90;4.60;;;;;;;61.35;7.85;99664.34;30970855;28;97133;-63
2023/09/13 11:44:58;;;;;;;8.00;4.53;;;;;;;58.06;8.65;99647.13;30969068;28;97501;-68
2023/09/13 12:00:04;;;;;;;6.22;4.53;;;;;;;54.93;10.31;99622.06;31114736;28;97438;-69
2023/09/13 12:15:05;;;;;;;11.97;6.37;;;;;;;43.22;18.33;99650.34;30970174;28;97930;-69
2023/09/13 12:30:07;;;;;;;12.87;8.83;;;;;;;36.03;27.15;99654.31;30978656;28;97314;-64
2023/09/13 12:45:08;;;;;;;;;;;;;;;33.13;31.58;99661.00;30962140;28;97212;-64
2023/09/13 13:00:14;;;;;;;15.35;11.07;;;;;;;30.93;36.58;99668.81;30960842;28;97388;-66
2023/09/13 13:15:14;;;;;;;12.90;10.63;;;;;;;29.23;40.60;99688.69;30959883;28;97081;-67
2023/09/13 13:30:15;;;;;;;18.50;12.68;;;;;;;28.35;43.51;99693.91;30960482;28;97207;-66
2023/09/13 13:45:15;;;;;;;15.23;13.63;;;;;;;27.48;47.62;99692.56;30957496;28;97340;-67
2023/09/13 14:00:16;;;;;;;17.80;12.88;;;;;;;28.16;49.78;99691.25;30957670;28;97339;-64
2023/09/13 14:15:20;;;;;;;15.45;12.05;;;;;;;29.54;48.01;99699.81;30968766;28;96788;-69
2023/09/13 14:30:21;;;;;;;16.57;11.23;;;;;;;29.83;45.20;99706.84;30975940;28;97293;-65
2023/09/13 14:45:21;;;;;;;16.23;10.87;;;;;;;29.22;44.96;99731.75;30975614;28;97259;-64
2023/09/13 15:00:22;;;;;;;11.65;10.45;;;;;;;28.15;46.18;99733.41;30974096;28;97424;-63
2023/09/13 15:15:23;;;;;;;17.13;11.13;;;;;;;27.95;46.68;99750.94;30972175;28;96705;-66
2023/09/13 15:30:24;;;;;;;13.17;9.87;;;;;;;27.82;46.66;99732.56;30970448;28;97235;-64
2023/09/13 15:45:24;;;;;;;14.20;9.13;;;;;;;26.96;46.38;99730.66;30970793;28;96674;-69
2023/09/13 16:00:25;;;;;;;12.45;8.35;;;;;;;26.84;47.04;99740.03;30965741;28;97414;-64
2023/09/13 16:15:25;;;;;;;10.18;7.97;;;;;;;26.92;46.36;99746.81;30967154;28;97170;-63
2023/09/13 16:30:26;;;;;;;9.63;7.03;;;;;;;26.29;47.40;99748.47;30962227;28;97250;-68
2023/09/13 16:45:26;;;;;;;12.48;7.63;;;;;;;25.82;48.59;99769.81;30963502;28;97251;-64
2023/09/13 17:00:27;;;;;;;7.65;5.32;;;;;;;25.21;49.35;99792.69;30961889;28;96918;-64
2023/09/13 17:15:27;;;;;;;9.50;3.45;;;;;;;24.66;49.40;99836.09;30961462;28;97630;-66
2023/09/13 17:30:29;;;;;;;5.65;4.20;;;;;;;24.29;50.14;99851.56;30960483;28;96762;-66
2023/09/13 17:45:30;;;;;;;4.60;3.50;;;;;;;23.98;50.58;99875.97;30956723;28;97076;-68
2023/09/13 18:00:30;;;;;;;7.65;3.75;;;;;;;23.68;51.30;99898.41;30955288;28;97116;-64
2023/09/13 18:15:33;;;;;;;;;;;;;;;23.44;51.97;99922.47;30957685;28;96704;-64
2023/09/13 18:30:34;;;;;;;6.13;3.50;;;;;;;23.24;52.49;99926.69;30956910;28;96702;-67
2023/09/13 18:45:37;;;;;;;7.47;2.90;;;;;;;23.08;53.54;99943.91;30955033;28;97062;-67
2023/09/13 19:00:37;;;;;;;4.40;2.63;;;;;;;22.85;54.36;99959.47;30963947;28;97275;-65
2023/09/13 19:15:37;;;;;;;2.72;2.10;;;;;;;22.47;55.60;99967.53;30974138;28;97275;-64
2023/09/13 19:30:39;;;;;;;2.30;1.73;;;;;;;22.13;55.87;99964.94;30973177;28;97732;-67
2023/09/13 19:45:39;;;;;;;2.57;1.20;;;;;;;21.76;56.15;99973.66;30971988;28;97689;-63
2023/09/13 20:00:42;;;;;;;3.97;1.80;;;;;;;21.60;56.36;99997.00;30969289;28;97406;-70
2023/09/13 20:15:42;;;;;;;2.83;1.80;;;;;;;21.43;56.72;100015.13;30966815;28;96941;-67
2023/09/13 20:30:42;;;;;;;3.00;1.80;;;;;;;21.27;57.11;100019.50;30966250;28;97131;-66
2023/09/13 20:45:43;;;;;;;3.10;1.63;;;;;;;21.14;57.52;100047.72;30964125;28;97098;-68
2023/09/13 21:00:46;;;;;;;5.07;1.83;;;;;;;21.00;57.97;100062.63;30964510;28;97141;-63
2023/09/13 21:15:47;;;;;;;3.27;1.60;;;;;;;20.82;58.61;100067.19;30963917;28;96790;-63
2023/09/13 21:30:48;;;;;;;2.87;1.70;;;;;;;20.69;59.27;100086.41;30962596;28;97161;-65
2023/09/13 21:45:48;;;;;;;3.45;1.83;;;;;;;20.49;59.69;100098.41;30961643;28;98090;-68
2023/09/13 22:00:54;;;;;;;2.30;1.60;;;;;;;20.26;60.33;100124.44;30961119;28;96790;-63
2023/09/13 22:15:55;;;;;;;4.33;2.20;;;;;;;20.00;61.19;100144.66;30960445;28;96769;-64
2023/09/13 22:30:59;;;;;;;2.85;1.40;;;;;;;19.82;61.74;100160.97;30965109;28;97107;-70
2023/09/13 22:46:07;;;;;;;3.10;1.53;;;;;;;19.45;62.64;100169.97;30980747;28;97192;-66
2023/09/13 23:01:09;;;;;;;2.97;1.80;;;;;;;19.16;63.38;100158.94;30979497;28;97443;-67
2023/09/13 23:16:09;;;;;;;2.60;1.70;;;;;;;18.90;64.45;100154.72;30977442;28;97323;-65
2023/09/13 23:31:14;;;;;;;3.25;1.85;;;;;;;18.88;65.32;100160.34;30976083;28;96764;-69
2023/09/13 23:46:15;;;;;;;3.80;1.80;;;;;;;18.92;65.85;100160.72;30973642;28;97216;-62
